Time;durP1;ratioP1;P1;durP2;ratioP2;P2;SDS_P1;SDS_P2;PMS_P1;PMS_P2;Temp;Humidity;BMP_temperature;BMP_pressure;BME280_temperature;BME280_humidity;BME280_pressure;Samples;Min_cycle;Max_cycle;Signal;HPM_P1;HPM_P2
2023/07/31 00:00:43;;;;;;;6.07;2.55;;;;;;;;;;5060905;28;20041;-58
2023/07/31 00:03:10;;;;;;;13.45;2.95;;;;;;;;;;5054457;28;20345;-58
2023/07/31 00:05:36;;;;;;;9.27;2.38;;;;;;;;;;5055456;28;20392;-58
2023/07/31 00:08:02;;;;;;;8.70;2.55;;;;;;;;;;5059903;28;20036;-58
2023/07/31 00:10:28;;;;;;;11.98;2.65;;;;;;;;;;5053833;28;20058;-58
2023/07/31 00:12:55;;;;;;;7.20;2.33;;;;;;;;;;5048598;28;20106;-58
2023/07/31 00:15:21;;;;;;;10.07;3.10;;;;;;;;;;5051695;28;20090;-58
2023/07/31 00:17:47;;;;;;;8.48;2.60;;;;;;;;;;5050442;28;20048;-57
2023/07/31 00:20:13;;;;;;;6.47;2.40;;;;;;;;;;5057299;28;20076;-57
2023/07/31 00:22:40;;;;;;;10.27;2.42;;;;;;;;;;5056131;28;20116;-58
2023/07/31 00:25:06;;;;;;;11.77;3.35;;;;;;;;;;5054433;28;20048;-58
2023/07/31 00:27:32;;;;;;;13.18;3.00;;;;;;;;;;5054284;28;20070;-58
2023/07/31 00:29:58;;;;;;;13.75;3.00;;;;;;;;;;5056178;28;20037;-58
2023/07/31 00:32:25;;;;;;;6.70;2.70;;;;;;;;;;5060919;28;20102;-58
2023/07/31 00:34:51;;;;;;;14.27;2.33;;;;;;;;;;5051506;28;20124;-57
2023/07/31 00:37:17;;;;;;;11.10;2.92;;;;;;;;;;5051773;28;20389;-57
2023/07/31 00:39:43;;;;;;;8.60;2.25;;;;;;;;;;5053723;28;20036;-58
2023/07/31 00:42:09;;;;;;;5.90;2.35;;;;;;;;;;5051079;28;20049;-58
2023/07/31 00:44:36;;;;;;;13.13;2.15;;;;;;;;;;5053806;28;20358;-58
2023/07/31 00:47:02;;;;;;;10.95;2.13;;;;;;;;;;5050829;28;20079;-58
2023/07/31 00:49:28;;;;;;;6.55;2.15;;;;;;;;;;5058647;28;20044;-58
2023/07/31 00:51:57;;;;;;;9.27;2.10;;;;;;;;;;5055556;28;20048;-58
2023/07/31 00:54:23;;;;;;;8.65;2.70;;;;;;;;;;5051633;28;20519;-58
2023/07/31 00:56:51;;;;;;;8.55;2.08;;;;;;;;;;5052205;28;20049;-58
2023/07/31 00:59:18;;;;;;;8.20;2.78;;;;;;;;;;5051262;28;20051;-58
2023/07/31 01:01:45;;;;;;;11.75;3.10;;;;;;;;;;5052387;28;20056;-58
2023/07/31 01:04:12;;;;;;;12.82;3.05;;;;;;;;;;5053049;28;20142;-58
2023/07/31 01:06:41;;;;;;;9.77;2.90;;;;;;;;;;5049067;28;20048;-58
2023/07/31 01:09:12;;;;;;;14.75;3.78;;;;;;;;;;5056524;28;20503;-58
2023/07/31 01:11:41;;;;;;;10.48;3.10;;;;;;;;;;5059847;28;20122;-58
2023/07/31 01:14:08;;;;;;;8.65;2.70;;;;;;;;;;5073713;28;20929;-58
2023/07/31 01:16:35;;;;;;;8.35;2.53;;;;;;;;;;5069365;28;20391;-58
2023/07/31 01:19:01;;;;;;;16.83;2.58;;;;;;;;;;5065671;28;20044;-58
2023/07/31 01:21:27;;;;;;;10.15;2.85;;;;;;;;;;5058455;28;20045;-58
2023/07/31 01:24:12;;;;;;;11.05;2.40;;;;;;;;;;5067521;28;20052;-58
2023/07/31 01:26:39;;;;;;;8.70;2.50;;;;;;;;;;5080479;28;20341;-58
2023/07/31 01:29:25;;;;;;;14.55;2.78;;;;;;;;;;5057522;28;20048;-58
2023/07/31 01:31:53;;;;;;;9.35;2.42;;;;;;;;;;5057851;28;20049;-58
2023/07/31 01:34:21;;;;;;;16.70;3.10;;;;;;;;;;5069736;28;20480;-58
2023/07/31 01:36:47;;;;;;;7.60;2.42;;;;;;;;;;5055637;28;20041;-58
2023/07/31 01:39:15;;;;;;;12.82;2.45;;;;;;;;;;5062818;28;20041;-58
2023/07/31 01:41:41;;;;;;;10.98;2.20;;;;;;;;;;5062647;28;20132;-58
2023/07/31 01:44:07;;;;;;;10.43;2.20;;;;;;;;;;5068633;28;20195;-58
2023/07/31 01:46:34;;;;;;;10.55;2.47;;;;;;;;;;5055474;28;20059;-58
2023/07/31 01:49:00;;;;;;;9.32;2.53;;;;;;;;;;5071352;28;20050;-58
2023/07/31 01:51:26;;;;;;;8.35;1.90;;;;;;;;;;5074381;28;20075;-58
2023/07/31 01:53:52;;;;;;;8.43;2.30;;;;;;;;;;5075103;28;20479;-57
2023/07/31 01:56:18;;;;;;;9.80;2.53;;;;;;;;;;5061648;28;20791;-58
2023/07/31 01:58:44;;;;;;;8.90;2.22;;;;;;;;;;5063290;28;20068;-58
2023/07/31 02:01:11;;;;;;;8.38;2.42;;;;;;;;;;5070613;28;20045;-58
2023/07/31 02:03:37;;;;;;;12.73;2.33;;;;;;;;;;5078454;28;20504;-58
2023/07/31 02:06:03;;;;;;;16.10;2.40;;;;;;;;;;5072931;28;20193;-58
2023/07/31 02:08:29;;;;;;;10.18;2.35;;;;;;;;;;5074491;28;20492;-58
2023/07/31 02:10:55;;;;;;;7.93;1.85;;;;;;;;;;5082606;28;20036;-57
2023/07/31 02:13:21;;;;;;;8.48;2.20;;;;;;;;;;5066354;28;20473;-58
2023/07/31 02:15:48;;;;;;;10.43;2.40;;;;;;;;;;5073130;28;20043;-58
2023/07/31 02:18:14;;;;;;;7.70;2.20;;;;;;;;;;5070364;28;20040;-57
2023/07/31 02:20:40;;;;;;;8.15;1.80;;;;;;;;;;5068424;28;20433;-58
2023/07/31 02:23:07;;;;;;;4.75;1.83;;;;;;;;;;5064335;28;20447;-58
2023/07/31 02:25:33;;;;;;;8.75;2.03;;;;;;;;;;5063966;28;20043;-58
2023/07/31 02:27:59;;;;;;;4.85;1.90;;;;;;;;;;5057597;28;20077;-57
2023/07/31 02:30:25;;;;;;;12.88;2.25;;;;;;;;;;5058661;28;20492;-58
2023/07/31 02:32:51;;;;;;;8.77;2.47;;;;;;;;;;5052629;28;20091;-58
2023/07/31 02:35:18;;;;;;;5.55;1.83;;;;;;;;;;5068214;28;20064;-58
2023/07/31 02:37:44;;;;;;;6.75;2.35;;;;;;;;;;5066640;28;20037;-58
2023/07/31 02:40:11;;;;;;;8.48;2.28;;;;;;;;;;5056478;28;20116;-58
2023/07/31 02:42:37;;;;;;;8.10;2.10;;;;;;;;;;5054672;28;20057;-57
2023/07/31 02:45:03;;;;;;;7.47;2.03;;;;;;;;;;5061508;28;20055;-58
2023/07/31 02:47:29;;;;;;;9.63;2.20;;;;;;;;;;5070629;28;20061;-57
2023/07/31 02:49:56;;;;;;;9.95;2.38;;;;;;;;;;5063822;28;20037;-58
2023/07/31 02:52:22;;;;;;;8.00;2.42;;;;;;;;;;5051078;28;20036;-57
2023/07/31 02:54:48;;;;;;;7.72;2.25;;;;;;;;;;5060104;28;20424;-58
2023/07/31 02:57:15;;;;;;;10.23;2.00;;;;;;;;;;5052595;28;20041;-58
2023/07/31 02:59:42;;;;;;;13.27;2.35;;;;;;;;;;5055955;28;20036;-58
2023/07/31 03:02:08;;;;;;;10.23;2.40;;;;;;;;;;5056463;28;20053;-57
2023/07/31 03:04:34;;;;;;;7.65;2.30;;;;;;;;;;5054461;28;20051;-57
2023/07/31 03:07:00;;;;;;;5.28;2.38;;;;;;;;;;5049806;28;20059;-58
2023/07/31 03:09:26;;;;;;;12.98;2.30;;;;;;;;;;5051983;28;20100;-58
2023/07/31 03:11:52;;;;;;;8.18;2.50;;;;;;;;;;5051338;28;20041;-57
2023/07/31 03:14:19;;;;;;;11.77;3.08;;;;;;;;;;5050622;28;20431;-57
2023/07/31 03:16:45;;;;;;;10.15;2.78;;;;;;;;;;5055007;28;20049;-58
2023/07/31 03:19:11;;;;;;;7.50;2.55;;;;;;;;;;5060669;28;20085;-57
2023/07/31 03:21:37;;;;;;;8.32;2.33;;;;;;;;;;5050863;28;20074;-58
2023/07/31 03:24:03;;;;;;;6.88;2.17;;;;;;;;;;5051252;28;20086;-58
2023/07/31 03:26:31;;;;;;;4.95;2.00;;;;;;;;;;5050968;28;20456;-58
2023/07/31 03:28:57;;;;;;;6.70;1.70;;;;;;;;;;5065099;28;20040;-58
2023/07/31 03:31:24;;;;;;;3.63;1.42;;;;;;;;;;5078678;28;20514;-58
2023/07/31 03:33:50;;;;;;;5.07;1.30;;;;;;;;;;5063308;28;20091;-58
2023/07/31 03:36:16;;;;;;;4.97;1.30;;;;;;;;;;5057607;28;20075;-57
2023/07/31 03:38:42;;;;;;;5.20;1.52;;;;;;;;;;5064984;28;20048;-58
2023/07/31 03:41:10;;;;;;;4.75;1.40;;;;;;;;;;5074638;28;20404;-58
2023/07/31 03:43:36;;;;;;;5.88;1.48;;;;;;;;;;5066928;28;20114;-57
2023/07/31 03:46:02;;;;;;;7.63;1.80;;;;;;;;;;5052505;28;20064;-58
2023/07/31 03:48:29;;;;;;;4.10;1.42;;;;;;;;;;5056220;28;20063;-58
2023/07/31 03:50:56;;;;;;;3.55;1.30;;;;;;;;;;5051586;28;20669;-57
2023/07/31 03:53:22;;;;;;;5.32;1.33;;;;;;;;;;5050404;28;20037;-57
2023/07/31 03:55:48;;;;;;;2.75;1.02;;;;;;;;;;5054267;28;20051;-57
2023/07/31 03:58:14;;;;;;;4.75;1.50;;;;;;;;;;5068850;28;20097;-58
2023/07/31 04:00:41;;;;;;;3.75;1.15;;;;;;;;;;5056603;28;20068;-58
2023/07/31 04:03:07;;;;;;;3.80;1.52;;;;;;;;;;5053129;28;20574;-58
2023/07/31 04:05:33;;;;;;;4.47;1.33;;;;;;;;;;5049864;28;20125;-57
2023/07/31 04:07:59;;;;;;;2.50;1.00;;;;;;;;;;5050673;28;20367;-57
2023/07/31 04:10:26;;;;;;;3.10;1.10;;;;;;;;;;5050486;28;20066;-58
2023/07/31 04:12:52;;;;;;;5.38;1.20;;;;;;;;;;5064364;28;20160;-58
2023/07/31 04:15:18;;;;;;;3.70;1.20;;;;;;;;;;5055786;28;20345;-58
2023/07/31 04:17:44;;;;;;;3.20;1.33;;;;;;;;;;5062082;28;20063;-58
2023/07/31 04:20:10;;;;;;;4.97;1.40;;;;;;;;;;5055335;28;20038;-58
2023/07/31 04:22:37;;;;;;;2.40;1.13;;;;;;;;;;5064017;28;20084;-58
2023/07/31 04:25:03;;;;;;;4.10;1.45;;;;;;;;;;5051837;28;20060;-58
2023/07/31 04:27:29;;;;;;;2.90;1.30;;;;;;;;;;5049477;28;20056;-57
2023/07/31 04:29:55;;;;;;;4.38;1.67;;;;;;;;;;5050940;28;20094;-58
2023/07/31 04:32:21;;;;;;;4.35;1.75;;;;;;;;;;5058860;28;20058;-58
2023/07/31 04:34:47;;;;;;;3.75;1.85;;;;;;;;;;5052394;28;20040;-58
2023/07/31 04:37:14;;;;;;;4.05;1.60;;;;;;;;;;5050378;28;20053;-57
2023/07/31 04:39:40;;;;;;;3.53;2.00;;;;;;;;;;5050728;28;20171;-58
2023/07/31 04:42:06;;;;;;;5.15;1.85;;;;;;;;;;5052698;28;20037;-57
2023/07/31 04:44:32;;;;;;;4.53;1.98;;;;;;;;;;5053551;28;20417;-58
2023/07/31 04:46:59;;;;;;;4.55;1.63;;;;;;;;;;5051128;28;20055;-57
2023/07/31 04:49:25;;;;;;;12.32;2.90;;;;;;;;;;5050116;28;20047;-58
2023/07/31 04:51:51;;;;;;;14.82;3.13;;;;;;;;;;5064817;28;20048;-58
2023/07/31 04:54:17;;;;;;;13.90;3.95;;;;;;;;;;5074576;28;20406;-58
2023/07/31 04:56:43;;;;;;;14.88;4.43;;;;;;;;;;5069338;28;20041;-58
2023/07/31 04:59:10;;;;;;;14.35;4.75;;;;;;;;;;5056975;28;20165;-58
2023/07/31 05:01:36;;;;;;;16.17;4.65;;;;;;;;;;5064490;28;20402;-58
2023/07/31 05:04:02;;;;;;;17.17;5.18;;;;;;;;;;5074384;28;20044;-58
2023/07/31 05:06:28;;;;;;;12.52;4.93;;;;;;;;;;5059515;28;20045;-58
2023/07/31 05:08:54;;;;;;;20.15;5.53;;;;;;;;;;5066507;28;20135;-58
2023/07/31 05:11:20;;;;;;;19.00;5.45;;;;;;;;;;5073777;28;20121;-58
2023/07/31 05:13:47;;;;;;;12.07;4.30;;;;;;;;;;5062811;28;20037;-58
2023/07/31 05:16:13;;;;;;;20.98;5.15;;;;;;;;;;5060515;28;20400;-59
2023/07/31 05:18:39;;;;;;;15.00;4.55;;;;;;;;;;5069862;28;20392;-59
2023/07/31 05:21:05;;;;;;;15.48;5.10;;;;;;;;;;5064273;28;20051;-59
2023/07/31 05:23:32;;;;;;;16.15;4.63;;;;;;;;;;5056563;28;20041;-59
2023/07/31 05:26:05;;;;;;;17.05;4.80;;;;;;;;;;5059741;28;20045;-59
2023/07/31 05:28:31;;;;;;;13.05;4.95;;;;;;;;;;5074354;28;20432;-59
2023/07/31 05:31:01;;;;;;;16.40;5.15;;;;;;;;;;5073835;28;20177;-59
2023/07/31 05:33:27;;;;;;;19.08;4.80;;;;;;;;;;5073992;28;20369;-59
2023/07/31 05:35:53;;;;;;;20.23;5.72;;;;;;;;;;5071592;28;20051;-59
2023/07/31 05:38:20;;;;;;;14.85;4.88;;;;;;;;;;5068481;28;20530;-59
2023/07/31 05:40:46;;;;;;;18.45;5.43;;;;;;;;;;5064806;28;20037;-58
2023/07/31 05:43:12;;;;;;;13.70;4.88;;;;;;;;;;5058723;28;20127;-59
2023/07/31 05:45:40;;;;;;;23.45;6.18;;;;;;;;;;5062265;28;20049;-59
2023/07/31 05:48:06;;;;;;;25.23;7.70;;;;;;;;;;5071150;28;20060;-58
2023/07/31 05:50:32;;;;;;;27.35;6.85;;;;;;;;;;5070750;28;20044;-58
2023/07/31 05:52:58;;;;;;;22.90;6.55;;;;;;;;;;5069689;28;20040;-59
2023/07/31 05:55:28;;;;;;;23.52;7.05;;;;;;;;;;5070651;28;20435;-59
2023/07/31 05:57:55;;;;;;;26.83;6.60;;;;;;;;;;5065076;28;20033;-59
2023/07/31 06:00:22;;;;;;;21.02;6.60;;;;;;;;;;5053396;28;20124;-59
2023/07/31 06:02:48;;;;;;;21.42;5.82;;;;;;;;;;5064385;28;20187;-59
2023/07/31 06:05:14;;;;;;;24.02;7.13;;;;;;;;;;5053144;28;20504;-59
2023/07/31 06:07:41;;;;;;;14.48;5.03;;;;;;;;;;5056303;28;20033;-59
2023/07/31 06:10:08;;;;;;;18.30;5.43;;;;;;;;;;5063458;28;20041;-59
2023/07/31 06:12:34;;;;;;;17.00;4.57;;;;;;;;;;5073157;28;20492;-59
2023/07/31 06:15:00;;;;;;;15.15;4.65;;;;;;;;;;5073027;28;20068;-59
2023/07/31 06:17:27;;;;;;;13.07;4.30;;;;;;;;;;5071799;28;20037;-59
2023/07/31 06:19:53;;;;;;;15.02;4.38;;;;;;;;;;5070194;28;20146;-58
2023/07/31 06:22:19;;;;;;;15.93;4.20;;;;;;;;;;5071075;28;20038;-59
2023/07/31 06:24:46;;;;;;;15.02;3.95;;;;;;;;;;5070038;28;20036;-59
2023/07/31 06:27:12;;;;;;;14.75;3.65;;;;;;;;;;5065505;28;20037;-59
2023/07/31 06:29:38;;;;;;;15.30;4.55;;;;;;;;;;5064578;28;20345;-59
2023/07/31 06:32:04;;;;;;;12.65;4.88;;;;;;;;;;5066259;28;20040;-59
2023/07/31 06:34:30;;;;;;;15.32;4.72;;;;;;;;;;5066160;28;20396;-59
2023/07/31 06:36:57;;;;;;;22.85;5.78;;;;;;;;;;5071542;28;20154;-59
2023/07/31 06:39:23;;;;;;;26.42;6.53;;;;;;;;;;5058576;28;20507;-59
2023/07/31 06:41:50;;;;;;;26.75;6.40;;;;;;;;;;5079105;28;20040;-59
2023/07/31 06:44:16;;;;;;;16.58;6.13;;;;;;;;;;5072496;28;20052;-59
2023/07/31 06:46:43;;;;;;;29.20;6.65;;;;;;;;;;5071644;28;20052;-59
2023/07/31 06:49:09;;;;;;;20.83;5.93;;;;;;;;;;5072368;28;20049;-59
2023/07/31 06:51:36;;;;;;;19.90;6.20;;;;;;;;;;5070730;28;20045;-59
2023/07/31 06:54:02;;;;;;;21.83;6.32;;;;;;;;;;5065289;28;20036;-59
2023/07/31 06:56:28;;;;;;;17.98;5.38;;;;;;;;;;5069308;28;20405;-59
2023/07/31 06:58:55;;;;;;;18.05;5.15;;;;;;;;;;5063300;28;20091;-59
2023/07/31 07:01:22;;;;;;;19.27;4.30;;;;;;;;;;5068469;28;20041;-59
2023/07/31 07:03:50;;;;;;;15.77;4.35;;;;;;;;;;5062101;28;20052;-59
2023/07/31 07:06:17;;;;;;;13.05;3.75;;;;;;;;;;5066762;28;20469;-58
2023/07/31 07:08:43;;;;;;;20.95;4.85;;;;;;;;;;5070839;28;20476;-59
2023/07/31 07:11:10;;;;;;;15.93;4.53;;;;;;;;;;5071991;28;20080;-59
2023/07/31 07:13:36;;;;;;;17.65;4.93;;;;;;;;;;5071310;28;20144;-59
2023/07/31 07:16:02;;;;;;;12.52;4.32;;;;;;;;;;5070277;28;20071;-59
2023/07/31 07:18:28;;;;;;;10.80;4.38;;;;;;;;;;5069937;28;20501;-59
2023/07/31 07:20:57;;;;;;;12.73;3.67;;;;;;;;;;5069837;28;20123;-59
2023/07/31 07:23:23;;;;;;;12.25;3.55;;;;;;;;;;5069547;28;20094;-58
2023/07/31 07:25:49;;;;;;;10.60;3.47;;;;;;;;;;5071468;28;20107;-58
2023/07/31 07:28:16;;;;;;;7.72;3.25;;;;;;;;;;5069314;28;20210;-59
2023/07/31 07:30:42;;;;;;;8.75;3.08;;;;;;;;;;5055358;28;20041;-59
2023/07/31 07:33:08;;;;;;;8.95;2.80;;;;;;;;;;5065794;28;20041;-59
2023/07/31 07:35:35;;;;;;;7.05;3.00;;;;;;;;;;5070662;28;20089;-59
2023/07/31 07:38:02;;;;;;;7.35;2.75;;;;;;;;;;5071698;28;20040;-59
2023/07/31 07:40:28;;;;;;;8.38;2.55;;;;;;;;;;5071365;28;20044;-59
2023/07/31 07:42:54;;;;;;;8.77;2.40;;;;;;;;;;5065752;28;20040;-59
2023/07/31 07:45:20;;;;;;;8.07;2.22;;;;;;;;;;5059928;28;20127;-59
2023/07/31 07:47:46;;;;;;;7.13;1.88;;;;;;;;;;5065404;28;20048;-70
2023/07/31 07:50:12;;;;;;;8.13;2.30;;;;;;;;;;5067412;28;20045;-59
2023/07/31 07:52:39;;;;;;;6.45;2.50;;;;;;;;;;5070021;28;20053;-59
2023/07/31 07:55:05;;;;;;;6.85;2.60;;;;;;;;;;5070473;28;20113;-59
2023/07/31 07:57:31;;;;;;;7.10;2.20;;;;;;;;;;5068365;28;20032;-59
2023/07/31 07:59:57;;;;;;;6.20;2.40;;;;;;;;;;5069394;28;20411;-65
2023/07/31 08:02:24;;;;;;;4.93;2.20;;;;;;;;;;5061868;28;20044;-59
2023/07/31 08:04:50;;;;;;;4.82;2.10;;;;;;;;;;5068969;28;20410;-59
2023/07/31 08:07:16;;;;;;;6.65;1.83;;;;;;;;;;5064611;28;20059;-59
2023/07/31 08:09:42;;;;;;;4.60;1.25;;;;;;;;;;5070081;28;20098;-59
2023/07/31 08:12:08;;;;;;;3.88;1.35;;;;;;;;;;5067069;28;20365;-59
2023/07/31 08:14:35;;;;;;;2.47;1.10;;;;;;;;;;5069600;28;20041;-67
2023/07/31 08:17:02;;;;;;;4.40;1.30;;;;;;;;;;5070158;28;20061;-59
2023/07/31 08:19:28;;;;;;;4.47;1.20;;;;;;;;;;5065868;28;20041;-59
2023/07/31 08:21:55;;;;;;;3.05;1.08;;;;;;;;;;5065888;28;20051;-58
2023/07/31 08:24:21;;;;;;;3.63;1.23;;;;;;;;;;5053938;28;20115;-59
2023/07/31 08:26:48;;;;;;;3.58;1.00;;;;;;;;;;5066245;28;20553;-58
2023/07/31 08:29:14;;;;;;;3.65;0.93;;;;;;;;;;5068998;28;20468;-59
2023/07/31 08:31:40;;;;;;;2.28;0.60;;;;;;;;;;5060381;28;20044;-58
2023/07/31 08:34:06;;;;;;;3.83;1.10;;;;;;;;;;5058625;28;20070;-59
2023/07/31 08:36:33;;;;;;;2.67;0.80;;;;;;;;;;5066422;28;20585;-58
2023/07/31 08:38:59;;;;;;;3.50;1.40;;;;;;;;;;5061858;28;20041;-59
2023/07/31 08:41:25;;;;;;;4.68;1.20;;;;;;;;;;5063974;28;20099;-60
2023/07/31 08:43:52;;;;;;;4.53;0.90;;;;;;;;;;5063863;28;20036;-59
2023/07/31 08:46:19;;;;;;;6.25;1.33;;;;;;;;;;5065355;28;20059;-58
2023/07/31 08:48:47;;;;;;;6.38;1.77;;;;;;;;;;5059130;28;20047;-58
2023/07/31 08:51:15;;;;;;;5.43;1.20;;;;;;;;;;5063614;28;20087;-59
2023/07/31 08:53:41;;;;;;;5.05;1.40;;;;;;;;;;5070577;28;20051;-59
2023/07/31 08:56:07;;;;;;;4.88;1.30;;;;;;;;;;5063458;28;20049;-59
2023/07/31 08:58:35;;;;;;;4.25;1.30;;;;;;;;;;5065325;28;20045;-59
2023/07/31 09:01:03;;;;;;;4.65;1.25;;;;;;;;;;5074650;28;20076;-59
2023/07/31 09:03:30;;;;;;;5.35;1.30;;;;;;;;;;5074807;28;20044;-59
2023/07/31 09:05:59;;;;;;;4.68;1.38;;;;;;;;;;5073632;28;20496;-59
2023/07/31 09:08:27;;;;;;;5.80;0.90;;;;;;;;;;5073303;28;20052;-59
2023/07/31 09:10:54;;;;;;;6.85;1.42;;;;;;;;;;5069592;28;20433;-58
2023/07/31 09:13:20;;;;;;;4.80;1.00;;;;;;;;;;5071271;28;20059;-59
2023/07/31 09:15:47;;;;;;;6.60;1.10;;;;;;;;;;5074435;28;20067;-59
2023/07/31 09:18:18;;;;;;;2.03;0.90;;;;;;;;;;5061689;28;20032;-58
2023/07/31 09:20:44;;;;;;;4.18;0.90;;;;;;;;;;5053856;28;20053;-59
2023/07/31 09:23:12;;;;;;;5.38;0.88;;;;;;;;;;5072193;28;20475;-59
2023/07/31 09:25:38;;;;;;;4.93;0.85;;;;;;;;;;5065111;28;20130;-59
2023/07/31 09:28:06;;;;;;;2.58;0.80;;;;;;;;;;5064294;28;20591;-58
2023/07/31 09:30:44;;;;;;;7.30;0.82;;;;;;;;;;5083193;28;20063;-58
2023/07/31 09:33:10;;;;;;;2.35;0.70;;;;;;;;;;5073788;28;20041;-59
2023/07/31 09:35:40;;;;;;;4.00;1.05;;;;;;;;;;5072082;28;20090;-59
2023/07/31 09:38:06;;;;;;;2.17;0.80;;;;;;;;;;5071723;28;20052;-59
2023/07/31 09:40:34;;;;;;;4.60;0.90;;;;;;;;;;5069617;28;20183;-70
2023/07/31 09:43:04;;;;;;;4.70;1.05;;;;;;;;;;5057322;28;20048;-58
2023/07/31 09:45:31;;;;;;;4.72;1.33;;;;;;;;;;5073521;28;20075;-59
2023/07/31 09:47:57;;;;;;;3.50;1.13;;;;;;;;;;5068423;28;20075;-59
2023/07/31 09:50:24;;;;;;;2.63;0.90;;;;;;;;;;5073563;28;20834;-59
2023/07/31 09:52:51;;;;;;;3.75;0.90;;;;;;;;;;5073468;28;20125;-59
2023/07/31 09:55:19;;;;;;;1.05;0.60;;;;;;;;;;5062184;28;20513;-59
2023/07/31 09:57:47;;;;;;;3.70;0.80;;;;;;;;;;5065634;28;20119;-59
2023/07/31 10:00:15;;;;;;;4.65;0.73;;;;;;;;;;5071138;28;20041;-59
2023/07/31 10:02:41;;;;;;;5.45;1.52;;;;;;;;;;5072509;28;20399;-59
2023/07/31 10:05:08;;;;;;;1.70;0.63;;;;;;;;;;5072992;28;20041;-59
2023/07/31 10:07:41;;;;;;;5.63;1.05;;;;;;;;;;5072484;28;20037;-59
2023/07/31 10:10:07;;;;;;;;;;;;;;;;;;5061493;28;20534;-59
2023/07/31 10:12:34;;;;;;;3.60;0.63;;;;;;;;;;5072827;28;19921;-59
2023/07/31 10:15:01;;;;;;;3.47;0.70;;;;;;;;;;5072989;28;20079;-58
2023/07/31 10:17:27;;;;;;;3.67;0.85;;;;;;;;;;5070004;28;20052;-59
2023/07/31 10:19:54;;;;;;;2.08;0.60;;;;;;;;;;5057133;28;20041;-58
2023/07/31 10:22:20;;;;;;;4.82;0.85;;;;;;;;;;5069842;28;20097;-58
2023/07/31 10:24:47;;;;;;;4.53;1.15;;;;;;;;;;5071954;28;20048;-58
2023/07/31 10:27:13;;;;;;;2.60;0.80;;;;;;;;;;5072911;28;20072;-65
2023/07/31 10:29:40;;;;;;;3.45;1.00;;;;;;;;;;5071433;28;20047;-58
2023/07/31 10:32:10;;;;;;;2.55;0.90;;;;;;;;;;5072190;28;20056;-58
2023/07/31 10:34:37;;;;;;;4.55;0.80;;;;;;;;;;5070835;28;20041;-58
2023/07/31 10:37:22;;;;;;;4.40;1.20;;;;;;;;;;5070394;28;20127;-60
2023/07/31 10:40:08;;;;;;;2.20;0.90;;;;;;;;;;5059834;28;20064;-60
2023/07/31 10:42:36;;;;;;;4.05;1.20;;;;;;;;;;5061559;28;20044;-60
2023/07/31 10:45:06;;;;;;;5.50;1.52;;;;;;;;;;5071958;28;20044;-60
2023/07/31 10:47:39;;;;;;;4.65;1.35;;;;;;;;;;5070624;28;20401;-59
2023/07/31 10:50:12;;;;;;;8.00;1.70;;;;;;;;;;5062784;28;20052;-60
2023/07/31 10:52:38;;;;;;;8.00;1.98;;;;;;;;;;5066505;28;20080;-60
2023/07/31 10:55:14;;;;;;;7.88;2.10;;;;;;;;;;5074118;28;20389;-60
2023/07/31 10:57:44;;;;;;;5.38;2.13;;;;;;;;;;5063140;28;20048;-60
2023/07/31 11:00:25;;;;;;;5.28;1.88;;;;;;;;;;5072262;28;20040;-60
2023/07/31 11:03:02;;;;;;;6.95;2.10;;;;;;;;;;5072339;28;20123;-60
2023/07/31 11:05:47;;;;;;;5.95;2.03;;;;;;;;;;5071452;28;20613;-60
2023/07/31 11:08:20;;;;;;;9.93;2.10;;;;;;;;;;5069264;28;20040;-60
2023/07/31 11:10:47;;;;;;;7.57;1.88;;;;;;;;;;5072259;28;20040;-60
2023/07/31 11:13:14;;;;;;;7.15;1.90;;;;;;;;;;5070640;28;20411;-60
2023/07/31 11:15:40;;;;;;;6.95;2.20;;;;;;;;;;5072050;28;20109;-60
2023/07/31 11:18:07;;;;;;;4.93;2.00;;;;;;;;;;5068761;28;20559;-59
2023/07/31 11:20:35;;;;;;;5.13;1.85;;;;;;;;;;5071133;28;20120;-59
2023/07/31 11:23:04;;;;;;;7.28;1.83;;;;;;;;;;5072879;28;20045;-59
2023/07/31 11:25:31;;;;;;;6.80;1.60;;;;;;;;;;5069429;28;20439;-59
2023/07/31 11:27:58;;;;;;;5.75;1.60;;;;;;;;;;5068693;28;20068;-61
2023/07/31 11:30:25;;;;;;;7.13;2.17;;;;;;;;;;5063780;28;20047;-60
2023/07/31 11:32:51;;;;;;;5.18;1.77;;;;;;;;;;5054052;28;20416;-60
2023/07/31 11:35:18;;;;;;;5.65;1.60;;;;;;;;;;5058541;28;20116;-66
2023/07/31 11:37:45;;;;;;;6.35;2.15;;;;;;;;;;5053726;28;20519;-59
2023/07/31 11:40:12;;;;;;;6.40;1.73;;;;;;;;;;5061317;28;20051;-59
2023/07/31 11:42:38;;;;;;;9.90;2.40;;;;;;;;;;5055579;28;20083;-60
2023/07/31 11:45:07;;;;;;;6.45;1.92;;;;;;;;;;5060143;28;20048;-59
2023/07/31 11:47:34;;;;;;;6.85;1.60;;;;;;;;;;5059869;28;20068;-59
2023/07/31 11:50:01;;;;;;;6.82;1.98;;;;;;;;;;5070966;28;20449;-60
2023/07/31 11:52:30;;;;;;;6.65;1.95;;;;;;;;;;5065530;28;20102;-60
2023/07/31 11:54:57;;;;;;;3.60;1.42;;;;;;;;;;5061801;28;20158;-60
2023/07/31 11:57:23;;;;;;;4.18;1.20;;;;;;;;;;5058843;28;20169;-59
2023/07/31 11:59:50;;;;;;;5.20;1.33;;;;;;;;;;5056895;28;20116;-59
2023/07/31 12:02:19;;;;;;;4.95;1.77;;;;;;;;;;5061858;28;20523;-60
2023/07/31 12:04:45;;;;;;;5.55;1.45;;;;;;;;;;5054756;28;20469;-59
2023/07/31 12:07:12;;;;;;;4.13;1.40;;;;;;;;;;5060361;28;20036;-71
2023/07/31 12:09:39;;;;;;;5.35;1.70;;;;;;;;;;5048527;28;20040;-61
2023/07/31 12:12:09;;;;;;;7.60;1.80;;;;;;;;;;5062472;28;20113;-60
2023/07/31 12:14:35;;;;;;;4.45;1.98;;;;;;;;;;5051520;28;20076;-59
2023/07/31 12:17:04;;;;;;;3.92;1.80;;;;;;;;;;5050013;28;20117;-60
2023/07/31 12:19:31;;;;;;;7.20;1.80;;;;;;;;;;5050911;28;20052;-60
2023/07/31 12:21:59;;;;;;;7.63;1.92;;;;;;;;;;5058216;28;20045;-60
2023/07/31 12:24:26;;;;;;;8.90;2.53;;;;;;;;;;5068438;28;20041;-60
2023/07/31 12:26:54;;;;;;;9.85;2.67;;;;;;;;;;5070824;28;20056;-60
2023/07/31 12:29:20;;;;;;;7.28;2.30;;;;;;;;;;5069873;28;20048;-60
2023/07/31 12:31:47;;;;;;;16.25;2.80;;;;;;;;;;5070516;28;20044;-60
2023/07/31 12:34:17;;;;;;;9.52;2.45;;;;;;;;;;5061327;28;20036;-60
2023/07/31 12:36:44;;;;;;;15.80;2.85;;;;;;;;;;5069978;28;20044;-60
2023/07/31 12:39:10;;;;;;;10.30;2.88;;;;;;;;;;5070505;28;20085;-60
2023/07/31 12:41:36;;;;;;;11.77;3.30;;;;;;;;;;5069830;28;20427;-60
2023/07/31 12:44:03;;;;;;;11.77;2.97;;;;;;;;;;5058902;28;20508;-59
2023/07/31 12:46:29;;;;;;;14.40;3.03;;;;;;;;;;5067078;28;20404;-60
2023/07/31 12:48:56;;;;;;;11.70;2.75;;;;;;;;;;5068131;28;20048;-59
2023/07/31 12:51:22;;;;;;;13.93;3.10;;;;;;;;;;5068584;28;20041;-59
2023/07/31 12:53:48;;;;;;;12.40;2.67;;;;;;;;;;5068902;28;20349;-59
2023/07/31 12:56:14;;;;;;;9.50;2.55;;;;;;;;;;5067114;28;20045;-59
2023/07/31 12:58:40;;;;;;;11.27;3.15;;;;;;;;;;5069706;28;20045;-59
2023/07/31 13:01:06;;;;;;;12.68;3.15;;;;;;;;;;5070417;28;20144;-59
2023/07/31 13:03:33;;;;;;;12.63;2.72;;;;;;;;;;5070547;28;20456;-59
2023/07/31 13:05:59;;;;;;;9.18;2.55;;;;;;;;;;5063105;28;20048;-59
2023/07/31 13:08:25;;;;;;;12.80;2.90;;;;;;;;;;5070239;28;20039;-59
2023/07/31 13:10:51;;;;;;;12.13;3.45;;;;;;;;;;5070466;28;20044;-59
2023/07/31 13:13:17;;;;;;;15.23;2.78;;;;;;;;;;5069321;28;20093;-59
2023/07/31 13:15:45;;;;;;;13.05;3.22;;;;;;;;;;5069595;28;20043;-59
2023/07/31 13:18:11;;;;;;;13.13;3.08;;;;;;;;;;5070312;28;20041;-60
2023/07/31 13:20:37;;;;;;;8.38;2.45;;;;;;;;;;5055239;28;20036;-59
2023/07/31 13:23:03;;;;;;;11.10;2.72;;;;;;;;;;5070475;28;20040;-59
2023/07/31 13:25:29;;;;;;;14.57;3.35;;;;;;;;;;5056087;28;20128;-59
2023/07/31 13:27:56;;;;;;;13.73;3.65;;;;;;;;;;5070293;28;20047;-59
2023/07/31 13:30:22;;;;;;;9.10;2.47;;;;;;;;;;5070278;28;20028;-59
2023/07/31 13:32:48;;;;;;;7.70;2.70;;;;;;;;;;5069174;28;20041;-59
2023/07/31 13:35:14;;;;;;;8.27;2.55;;;;;;;;;;5069052;28;20118;-59
2023/07/31 13:37:41;;;;;;;9.45;2.97;;;;;;;;;;5070308;28;20373;-59
2023/07/31 13:40:07;;;;;;;15.60;3.03;;;;;;;;;;5069377;28;20128;-59
2023/07/31 13:42:33;;;;;;;12.70;3.15;;;;;;;;;;5070087;28;20052;-59
2023/07/31 13:45:00;;;;;;;13.43;3.00;;;;;;;;;;5071406;28;20028;-59
2023/07/31 13:47:26;;;;;;;10.38;3.45;;;;;;;;;;5072675;28;20532;-59
2023/07/31 13:49:52;;;;;;;9.18;2.70;;;;;;;;;;5073651;28;20097;-59
2023/07/31 13:52:19;;;;;;;9.25;3.00;;;;;;;;;;5064753;28;20045;-59
2023/07/31 13:54:45;;;;;;;10.35;2.67;;;;;;;;;;5064416;28;20137;-59
2023/07/31 13:57:11;;;;;;;10.23;3.53;;;;;;;;;;5062930;28;20534;-59
2023/07/31 13:59:40;;;;;;;9.25;3.22;;;;;;;;;;5073321;28;20056;-59
2023/07/31 14:02:06;;;;;;;10.60;3.00;;;;;;;;;;5072620;28;20043;-59
2023/07/31 14:04:32;;;;;;;10.05;3.10;;;;;;;;;;5073712;28;20400;-60
2023/07/31 14:06:59;;;;;;;10.63;2.78;;;;;;;;;;5064996;28;20119;-59
2023/07/31 14:09:27;;;;;;;10.32;3.15;;;;;;;;;;5072509;28;20041;-59
2023/07/31 14:11:53;;;;;;;12.77;3.25;;;;;;;;;;5073156;28;20037;-59
2023/07/31 14:14:20;;;;;;;11.85;3.08;;;;;;;;;;5073281;28;20076;-59
2023/07/31 14:16:46;;;;;;;12.32;3.35;;;;;;;;;;5071406;28;20051;-59
2023/07/31 14:19:12;;;;;;;8.90;3.25;;;;;;;;;;5067346;28;20452;-59
2023/07/31 14:21:38;;;;;;;15.60;3.97;;;;;;;;;;5064368;28;20080;-59
2023/07/31 14:24:04;;;;;;;12.30;3.70;;;;;;;;;;5073117;28;20041;-59
2023/07/31 14:26:31;;;;;;;11.40;3.63;;;;;;;;;;5071855;28;20132;-59
2023/07/31 14:28:57;;;;;;;13.05;3.60;;;;;;;;;;5072193;28;20518;-59
2023/07/31 14:31:23;;;;;;;10.15;3.35;;;;;;;;;;5072884;28;20125;-60
2023/07/31 14:33:49;;;;;;;13.32;4.10;;;;;;;;;;5073009;28;20071;-59
2023/07/31 14:36:15;;;;;;;11.10;3.55;;;;;;;;;;5071361;28;20403;-59